Time,TemperatureF,DewpointF,PressureIn,WindDirection,WindDirectionDegrees,WindSpeedMPH,WindSpeedGustMPH,Humidity,HourlyPrecipIn,Conditions,Clouds,dailyrainin,SoftwareType,DateUTC
2013-01-31 00:03:00,49.0,49.0,29.30,SSW,211,3.0,8.0,100,0.06,,,0.00,,2013-01-31 05:03:00,
2013-01-31 00:11:00,49.0,49.0,29.30,SSW,211,3.0,8.0,100,0.06,,,0.00,,2013-01-31 05:11:00,
2013-01-31 00:22:00,48.0,47.0,29.31,SW,231,5.0,7.0,98,0.06,,,0.00,,2013-01-31 05:22:00,
2013-01-31 00:32:00,48.0,47.0,29.31,SW,231,5.0,7.0,98,0.06,,,0.00,,2013-01-31 05:32:00,
2013-01-31 00:42:00,48.0,47.0,29.31,SW,231,5.0,7.0,98,0.06,,,0.00,,2013-01-31 05:42:00,
2013-01-31 00:52:00,48.0,47.0,29.31,SW,231,5.0,7.0,98,0.06,,,0.00,,2013-01-31 05:52:00,
2013-01-31 10:03:00,27.0,25.0,29.70,WSW,249,6.0,0.0,93,0.00,,,1.18,,2013-01-31 15:03:00,
2013-01-31 10:12:00,27.0,25.0,29.70,WNW,287,7.0,15.0,92,0.00,,,1.18,,2013-01-31 15:12:00,
2013-01-31 10:23:00,27.0,25.0,29.70,WNW,287,7.0,15.0,92,0.00,,,1.18,,2013-01-31 15:23:00,
2013-01-31 10:32:00,27.0,25.0,29.70,WNW,287,7.0,15.0,92,0.00,,,1.18,,2013-01-31 15:32:00,
2013-01-31 10:42:00,27.0,25.0,29.70,WNW,287,7.0,15.0,92,0.00,,,1.18,,2013-01-31 15:42:00,
2013-01-31 10:51:00,27.0,25.0,29.70,WNW,287,7.0,15.0,92,0.00,,,1.18,,2013-01-31 15:51:00,
2013-01-31 11:13:00,27.0,20.0,29.73,West,276,7.0,8.0,73,0.00,,,1.18,,2013-01-31 16:13:00,
2013-01-31 11:22:00,27.0,20.0,29.73,West,276,7.0,8.0,73,0.00,,,1.18,,2013-01-31 16:22:00,
2013-01-31 11:33:00,27.0,20.0,29.73,West,276,7.0,8.0,73,0.00,,,1.18,,2013-01-31 16:33:00,
2013-01-31 11:42:00,27.0,20.0,29.73,West,276,7.0,8.0,73,0.00,,,1.18,,2013-01-31 16:42:00,
2013-01-31 11:52:00,27.0,20.0,29.73,West,276,7.0,8.0,73,0.00,,,1.18,,2013-01-31 16:52:00,
2013-01-31 12:03:00,28.0,20.0,29.74,WSW,255,3.0,9.0,70,0.00,,,1.18,,2013-01-31 17:03:00,
2013-01-31 12:13:00,28.0,20.0,29.74,WSW,255,3.0,9.0,70,0.00,,,1.18,,2013-01-31 17:13:00,
2013-01-31 12:23:00,28.0,20.0,29.74,WSW,255,3.0,9.0,70,0.00,,,1.18,,2013-01-31 17:23:00,
2013-01-31 12:32:00,28.0,20.0,29.75,South,180,9.0,9.0,73,0.00,,,1.18,,2013-01-31 17:32:00,
2013-01-31 12:44:00,28.0,20.0,29.75,South,180,9.0,9.0,73,0.00,,,1.18,,2013-01-31 17:44:00,
2013-01-31 12:53:00,28.0,20.0,29.75,South,180,9.0,9.0,73,0.00,,,1.18,,2013-01-31 17:53:00,
2013-01-31 13:03:00,27.0,23.0,29.75,SW,236,8.0,8.0,84,0.00,,,1.18,,2013-01-31 18:03:00,
2013-01-31 13:13:00,27.0,23.0,29.75,SW,236,8.0,8.0,84,0.00,,,1.18,,2013-01-31 18:13:00,
2013-01-31 13:22:00,27.0,23.0,29.75,SW,236,8.0,8.0,84,0.00,,,1.18,,2013-01-31 18:22:00,
2013-01-31 13:32:00,27.0,23.0,29.75,SW,236,8.0,8.0,84,0.00,,,1.18,,2013-01-31 18:32:00,
2013-01-31 13:43:00,27.0,23.0,29.75,SW,236,8.0,8.0,84,0.00,,,1.18,,2013-01-31 18:43:00,
2013-01-31 15:32:00,25.0,21.0,29.81,West,271,6.0,6.0,83,0.00,,,1.18,,2013-01-31 20:32:00,
2013-01-31 15:42:00,25.0,21.0,29.81,West,271,6.0,6.0,83,0.00,,,1.18,,2013-01-31 20:42:00,
2013-01-31 15:52:00,25.0,21.0,29.81,West,271,6.0,6.0,83,0.00,,,1.18,,2013-01-31 20:52:00,
2013-01-31 16:02:00,25.0,21.0,29.81,West,271,6.0,6.0,83,0.00,,,1.18,,2013-01-31 21:02:00,
2013-01-31 16:12:00,25.0,21.0,29.81,West,271,6.0,6.0,83,0.00,,,1.18,,2013-01-31 21:12:00,
2013-01-31 17:52:00,25.0,16.0,29.85,West,262,2.0,5.0,67,0.00,,,1.18,,2013-01-31 22:52:00,
2013-01-31 18:03:00,25.0,16.0,29.85,West,262,2.0,5.0,67,0.00,,,1.18,,2013-01-31 23:03:00,
2013-01-31 18:12:00,25.0,16.0,29.85,West,262,2.0,5.0,67,0.00,,,1.18,,2013-01-31 23:12:00,
2013-01-31 18:22:00,25.0,16.0,29.85,West,262,2.0,5.0,67,0.00,,,1.18,,2013-01-31 23:22:00,
2013-01-31 18:32:00,25.0,16.0,29.84,SSW,203,4.0,5.0,67,0.00,,,1.18,,2013-01-31 23:32:00,
2013-01-31 18:42:00,25.0,16.0,29.84,SSW,203,4.0,5.0,67,0.00,,,1.18,,2013-01-31 23:42:00,
2013-01-31 18:52:00,25.0,16.0,29.84,SSW,203,4.0,5.0,67,0.00,,,1.18,,2013-01-31 23:52:00,
2013-01-31 19:02:00,25.0,15.0,29.85,SSE,159,0.0,0.0,64,0.00,,,1.18,,2013-02-01 00:02:00,
2013-01-31 19:11:00,25.0,15.0,29.85,SSE,159,0.0,0.0,64,0.00,,,1.18,,2013-02-01 00:11:00,
2013-01-31 19:22:00,25.0,15.0,29.85,SSE,159,0.0,0.0,64,0.00,,,1.18,,2013-02-01 00:22:00,
2013-01-31 19:32:00,25.0,15.0,29.85,WSW,240,0.0,0.0,64,0.00,,,1.18,,2013-02-01 00:32:00,
2013-01-31 19:42:00,25.0,15.0,29.85,WSW,240,0.0,0.0,64,0.00,,,1.18,,2013-02-01 00:42:00,
2013-01-31 19:52:00,25.0,14.0,29.85,WSW,249,4.0,0.0,63,0.00,,,1.18,,2013-02-01 00:52:00,
2013-01-31 20:01:00,25.0,14.0,29.85,WSW,249,4.0,0.0,63,0.00,,,1.18,,2013-02-01 01:01:00,
2013-01-31 20:11:00,25.0,16.0,29.85,SE,141,0.0,0.0,67,0.00,,,1.18,,2013-02-01 01:11:00,
2013-01-31 20:21:00,25.0,16.0,29.85,SE,141,0.0,0.0,67,0.00,,,1.18,,2013-02-01 01:21:00,
2013-01-31 20:32:00,25.0,16.0,29.85,SE,141,0.0,0.0,67,0.00,,,1.18,,2013-02-01 01:32:00,
2013-01-31 20:42:00,25.0,16.0,29.85,SE,141,0.0,0.0,67,0.00,,,1.18,,2013-02-01 01:42:00,
2013-01-31 20:52:00,25.0,16.0,29.85,SE,141,0.0,0.0,67,0.00,,,1.18,,2013-02-01 01:52:00,
2013-01-31 21:02:00,25.0,16.0,29.85,SW,231,1.0,0.0,69,0.00,,,1.18,,2013-02-01 02:02:00,
2013-01-31 21:12:00,25.0,16.0,29.85,SW,231,1.0,0.0,69,0.00,,,1.18,,2013-02-01 02:12:00,
2013-01-31 21:22:00,25.0,16.0,29.85,WSW,248,0.0,0.0,69,0.00,,,1.18,,2013-02-01 02:22:00,
2013-01-31 21:32:00,25.0,18.0,29.85,SW,221,0.0,6.0,74,0.00,,,1.18,,2013-02-01 02:32:00,
2013-01-31 21:42:00,25.0,18.0,29.85,SW,221,0.0,6.0,74,0.00,,,1.18,,2013-02-01 02:42:00,
2013-01-31 21:52:00,25.0,19.0,29.85,SW,229,0.0,0.0,76,0.00,,,1.18,,2013-02-01 02:52:00,
2013-01-31 22:02:00,25.0,19.0,29.85,SW,229,0.0,0.0,76,0.00,,,1.18,,2013-02-01 03:02:00,
2013-01-31 22:12:00,25.0,19.0,29.85,SW,229,0.0,0.0,76,0.00,,,1.18,,2013-02-01 03:12:00,
2013-01-31 22:21:00,25.0,19.0,29.85,SW,225,4.0,4.0,78,0.00,,,1.18,,2013-02-01 03:21:00,
2013-01-31 22:33:00,25.0,19.0,29.85,SW,225,4.0,4.0,78,0.00,,,1.18,,2013-02-01 03:33:00,
2013-01-31 22:42:00,25.0,19.0,29.85,SW,225,4.0,4.0,78,0.00,,,1.18,,2013-02-01 03:42:00,
2013-01-31 22:51:00,25.0,20.0,29.84,SSW,203,0.0,3.0,82,0.00,,,1.18,,2013-02-01 03:51:00,
2013-01-31 23:02:00,25.0,20.0,29.84,SSW,203,0.0,3.0,82,0.00,,,1.18,,2013-02-01 04:02:00,
2013-01-31 23:11:00,25.0,20.0,29.84,SSW,203,0.0,3.0,82,0.00,,,1.18,,2013-02-01 04:11:00,
2013-01-31 23:21:00,25.0,20.0,29.84,SSW,203,0.0,3.0,82,0.00,,,1.18,,2013-02-01 04:21:00,
2013-01-31 23:32:00,25.0,20.0,29.84,SSW,203,0.0,3.0,82,0.00,,,1.18,,2013-02-01 04:32:00,
2013-01-31 23:52:00,25.0,23.0,29.83,SSW,201,2.0,0.0,91,0.00,,,1.18,,2013-02-01 04:52:00,